Time,TemperatureF,DewpointF,PressureIn,WindDirection,WindDirectionDegrees,WindSpeedMPH,WindSpeedGustMPH,Humidity,HourlyPrecipIn,Conditions,Clouds,dailyrainin,SoftwareType,DateUTC
2013-02-23 01:41:00,39.0,31.7,30.19,SSE,158,1.0,-999.0,75,0.00,,,0.00,Wunderground v.1.15,2013-02-23 09:41:00,
2013-02-23 01:46:00,37.9,30.7,30.17,SSE,158,0.0,-999.0,75,0.00,,,0.00,Wunderground v.1.15,2013-02-23 09:46:00,
2013-02-23 01:51:00,37.9,30.7,30.17,SSE,158,0.0,-999.0,75,0.00,,,0.00,Wunderground v.1.15,2013-02-23 09:51:00,
2013-02-23 01:56:00,37.9,30.7,30.17,SSE,158,0.0,-999.0,75,0.00,,,0.00,Wunderground v.1.15,2013-02-23 09:56:00,
2013-02-23 02:01:00,37.9,30.7,30.17,SSE,158,0.0,-999.0,75,0.00,,,0.00,Wunderground v.1.15,2013-02-23 10:01:00,
2013-02-23 02:06:00,37.9,30.7,30.17,SSE,158,0.0,-999.0,75,0.00,,,0.00,Wunderground v.1.15,2013-02-23 10:06:00,
2013-02-23 02:11:00,37.9,30.7,30.17,SSE,158,0.0,-999.0,75,0.00,,,0.00,Wunderground v.1.15,2013-02-23 10:11:00,
2013-02-23 02:16:00,37.8,30.6,30.18,N/A,-737280,0.0,-999.0,75,0.00,,,0.00,Wunderground v.1.15,2013-02-23 10:16:00,
2013-02-23 02:21:00,37.8,30.6,30.18,N/A,-737280,0.0,-999.0,75,0.00,,,0.00,Wunderground v.1.15,2013-02-23 10:21:00,
2013-02-23 02:26:00,37.8,30.6,30.18,N/A,-737280,0.0,-999.0,75,0.00,,,0.00,Wunderground v.1.15,2013-02-23 10:26:00,
2013-02-23 02:31:00,37.8,30.6,30.18,N/A,-737280,0.0,-999.0,75,0.00,,,0.00,Wunderground v.1.15,2013-02-23 10:31:00,
2013-02-23 02:36:00,37.8,30.6,30.18,N/A,-737280,0.0,-999.0,75,0.00,,,0.00,Wunderground v.1.15,2013-02-23 10:36:00,
2013-02-23 02:41:00,37.8,30.6,30.18,N/A,-737280,0.0,-999.0,75,0.00,,,0.00,Wunderground v.1.15,2013-02-23 10:41:00,
2013-02-23 02:46:00,36.5,29.7,30.17,N/A,-737280,0.0,-999.0,76,0.00,,,0.00,Wunderground v.1.15,2013-02-23 10:46:00,
2013-02-23 02:51:00,36.5,29.7,30.17,N/A,-737280,0.0,-999.0,76,0.00,,,0.00,Wunderground v.1.15,2013-02-23 10:51:00,
2013-02-23 02:56:00,36.5,29.7,30.17,N/A,-737280,0.0,-999.0,76,0.00,,,0.00,Wunderground v.1.15,2013-02-23 10:56:00,
2013-02-23 03:01:00,36.5,29.7,30.17,N/A,-737280,0.0,-999.0,76,0.00,,,0.00,Wunderground v.1.15,2013-02-23 11:01:00,
2013-02-23 03:06:00,36.5,29.7,30.17,N/A,-737280,0.0,-999.0,76,0.00,,,0.00,Wunderground v.1.15,2013-02-23 11:06:00,
2013-02-23 03:11:00,36.5,29.7,30.17,N/A,-737280,0.0,-999.0,76,0.00,,,0.00,Wunderground v.1.15,2013-02-23 11:11:00,
2013-02-23 03:16:00,35.2,29.3,30.16,N/A,-737280,0.0,-999.0,79,0.00,,,0.00,Wunderground v.1.15,2013-02-23 11:16:00,
2013-02-23 03:21:00,35.2,29.3,30.16,N/A,-737280,0.0,-999.0,79,0.00,,,0.00,Wunderground v.1.15,2013-02-23 11:21:00,
2013-02-23 03:26:00,35.2,29.3,30.16,N/A,-737280,0.0,-999.0,79,0.00,,,0.00,Wunderground v.1.15,2013-02-23 11:26:00,
2013-02-23 03:31:00,35.2,29.3,30.16,N/A,-737280,0.0,-999.0,79,0.00,,,0.00,Wunderground v.1.15,2013-02-23 11:31:00,
2013-02-23 03:36:00,35.2,29.3,30.16,N/A,-737280,0.0,-999.0,79,0.00,,,0.00,Wunderground v.1.15,2013-02-23 11:36:00,
2013-02-23 03:41:00,35.2,29.3,30.16,N/A,-737280,0.0,-999.0,79,0.00,,,0.00,Wunderground v.1.15,2013-02-23 11:41:00,
2013-02-23 03:46:00,36.4,31.1,30.14,N/A,-737280,0.0,-999.0,81,0.00,,,0.00,Wunderground v.1.15,2013-02-23 11:46:00,
2013-02-23 03:51:00,36.4,31.1,30.14,N/A,-737280,0.0,-999.0,81,0.00,,,0.00,Wunderground v.1.15,2013-02-23 11:51:00,
2013-02-23 03:56:00,36.4,31.1,30.14,N/A,-737280,0.0,-999.0,81,0.00,,,0.00,Wunderground v.1.15,2013-02-23 11:56:00,
2013-02-23 04:01:00,36.4,31.1,30.14,N/A,-737280,0.0,-999.0,81,0.00,,,0.00,Wunderground v.1.15,2013-02-23 12:01:00,
2013-02-23 04:06:00,36.4,31.1,30.14,N/A,-737280,0.0,-999.0,81,0.00,,,0.00,Wunderground v.1.15,2013-02-23 12:06:00,
2013-02-23 04:11:00,36.4,31.1,30.14,N/A,-737280,0.0,-999.0,81,0.00,,,0.00,Wunderground v.1.15,2013-02-23 12:11:00,
2013-02-23 04:16:00,35.6,30.0,30.14,N/A,-737280,0.0,-999.0,80,0.00,,,0.00,Wunderground v.1.15,2013-02-23 12:16:00,
2013-02-23 04:21:00,35.6,30.0,30.14,N/A,-737280,0.0,-999.0,80,0.00,,,0.00,Wunderground v.1.15,2013-02-23 12:21:00,
2013-02-23 04:26:00,35.6,30.0,30.14,N/A,-737280,0.0,-999.0,80,0.00,,,0.00,Wunderground v.1.15,2013-02-23 12:26:00,
2013-02-23 04:31:00,35.6,30.0,30.14,N/A,-737280,0.0,-999.0,80,0.00,,,0.00,Wunderground v.1.15,2013-02-23 12:31:00,
2013-02-23 04:36:00,35.6,30.0,30.14,N/A,-737280,0.0,-999.0,80,0.00,,,0.00,Wunderground v.1.15,2013-02-23 12:36:00,
2013-02-23 04:41:00,35.6,30.0,30.14,N/A,-737280,0.0,-999.0,80,0.00,,,0.00,Wunderground v.1.15,2013-02-23 12:41:00,
2013-02-23 04:46:00,36.0,30.4,30.14,SE,135,0.0,-999.0,80,0.00,,,0.00,Wunderground v.1.15,2013-02-23 12:46:00,
2013-02-23 04:51:00,36.0,30.4,30.14,SE,135,0.0,-999.0,80,0.00,,,0.00,Wunderground v.1.15,2013-02-23 12:51:00,
2013-02-23 04:56:00,36.0,30.4,30.14,SE,135,0.0,-999.0,80,0.00,,,0.00,Wunderground v.1.15,2013-02-23 12:56:00,
2013-02-23 05:01:00,36.0,30.4,30.14,SE,135,0.0,-999.0,80,0.00,,,0.00,Wunderground v.1.15,2013-02-23 13:01:00,
2013-02-23 05:06:00,36.0,30.4,30.14,SE,135,0.0,-999.0,80,0.00,,,0.00,Wunderground v.1.15,2013-02-23 13:06:00,
2013-02-23 05:11:00,36.0,30.4,30.14,SE,135,0.0,-999.0,80,0.00,,,0.00,Wunderground v.1.15,2013-02-23 13:11:00,
2013-02-23 05:16:00,35.7,29.8,30.13,SE,135,0.0,-999.0,79,0.00,,,0.00,Wunderground v.1.15,2013-02-23 13:16:00,
2013-02-23 05:21:00,35.7,29.8,30.13,SE,135,0.0,-999.0,79,0.00,,,0.00,Wunderground v.1.15,2013-02-23 13:21:00,
2013-02-23 05:26:00,35.7,29.8,30.13,SE,135,0.0,-999.0,79,0.00,,,0.00,Wunderground v.1.15,2013-02-23 13:26:00,
2013-02-23 05:38:00,35.5,29.9,30.13,SW,233,0.0,0.0,80,0.00,,,0.00,Wunderground v.1.15,2013-02-23 13:38:00,
2013-02-23 05:40:00,35.3,29.7,30.13,SW,233,0.0,0.0,80,0.00,,,0.00,Wunderground v.1.15,2013-02-23 13:40:00,
2013-02-23 05:44:00,35.0,29.5,30.13,SSE,153,0.0,0.0,80,0.00,,,0.00,Wunderground v.1.15,2013-02-23 13:44:00,
2013-02-23 05:50:00,34.8,29.6,30.14,South,172,0.0,0.0,81,0.00,,,0.00,Wunderground v.1.15,2013-02-23 13:50:00,
2013-02-23 05:56:00,35.2,30.6,30.14,SSE,162,0.0,2.0,83,0.00,,,0.00,Wunderground v.1.15,2013-02-23 13:56:00,
2013-02-23 06:02:00,36.6,31.3,30.15,SSE,161,0.0,0.0,81,0.00,,,0.00,Wunderground v.1.15,2013-02-23 14:02:00,
2013-02-23 06:08:00,38.2,31.3,30.15,WSW,240,1.0,2.0,76,0.00,,,0.00,Wunderground v.1.15,2013-02-23 14:08:00,
2013-02-23 06:14:00,37.7,29.8,30.15,South,173,1.0,1.0,73,0.00,,,0.00,Wunderground v.1.15,2013-02-23 14:14:00,
2013-02-23 06:20:00,36.4,29.9,30.15,SSE,159,1.0,2.0,77,0.00,,,0.00,Wunderground v.1.15,2013-02-23 14:20:00,
2013-02-23 06:26:00,37.3,31.4,30.15,South,173,1.0,2.0,79,0.00,,,0.00,Wunderground v.1.15,2013-02-23 14:26:00,
2013-02-23 06:32:00,38.6,31.4,30.14,WSW,238,1.0,2.0,75,0.00,,,0.00,Wunderground v.1.15,2013-02-23 14:32:00,
2013-02-23 06:38:00,38.4,30.8,30.14,WSW,250,1.0,2.0,74,0.00,,,0.00,Wunderground v.1.15,2013-02-23 14:38:00,
2013-02-23 06:44:00,37.3,31.1,30.14,SSE,147,1.0,2.0,78,0.00,,,0.00,Wunderground v.1.15,2013-02-23 14:44:00,
2013-02-23 06:50:00,39.4,31.8,30.14,South,169,1.0,2.0,74,0.00,,,0.00,Wunderground v.1.15,2013-02-23 14:50:00,
2013-02-23 06:56:00,40.6,31.6,30.14,SSE,152,1.0,2.0,70,0.00,,,0.00,Wunderground v.1.15,2013-02-23 14:56:00,
2013-02-23 07:02:00,39.6,31.0,30.14,SSE,152,0.0,0.0,71,0.00,,,0.00,Wunderground v.1.15,2013-02-23 15:02:00,
2013-02-23 07:08:00,38.5,30.9,30.14,SSE,152,0.0,0.0,74,0.00,,,0.00,Wunderground v.1.15,2013-02-23 15:08:00,
2013-02-23 07:14:00,37.7,31.1,30.15,SE,139,0.0,0.0,77,0.00,,,0.00,Wunderground v.1.15,2013-02-23 15:14:00,
2013-02-23 07:20:00,37.5,31.3,30.15,SE,139,0.0,0.0,78,0.00,,,0.00,Wunderground v.1.15,2013-02-23 15:20:00,
2013-02-23 07:26:00,37.8,31.6,30.15,SE,139,0.0,0.0,78,0.00,,,0.00,Wunderground v.1.15,2013-02-23 15:26:00,
2013-02-23 07:32:00,38.1,31.5,30.15,SE,139,0.0,4.0,77,0.00,,,0.00,Wunderground v.1.15,2013-02-23 15:32:00,
2013-02-23 07:38:00,38.7,31.8,30.15,SE,139,0.0,4.0,76,0.00,,,0.00,Wunderground v.1.15,2013-02-23 15:38:00,
2013-02-23 07:44:00,38.8,31.6,30.15,SE,139,0.0,4.0,75,0.00,,,0.00,Wunderground v.1.15,2013-02-23 15:44:00,
2013-02-23 07:50:00,39.1,31.8,30.15,SE,139,0.0,4.0,75,0.00,,,0.00,Wunderground v.1.15,2013-02-23 15:50:00,
2013-02-23 07:56:00,39.6,32.3,30.15,SE,124,0.0,4.0,75,0.00,,,0.00,Wunderground v.1.15,2013-02-23 15:56:00,
2013-02-23 08:02:00,40.1,32.5,30.14,SE,124,0.0,0.0,74,0.00,,,0.00,Wunderground v.1.15,2013-02-23 16:02:00,
2013-02-23 08:08:00,40.8,33.2,30.15,SE,124,0.0,0.0,74,0.00,,,0.00,Wunderground v.1.15,2013-02-23 16:08:00,
2013-02-23 08:14:00,41.6,34.3,30.14,SE,124,0.0,0.0,75,0.00,,,0.00,Wunderground v.1.15,2013-02-23 16:14:00,
2013-02-23 08:20:00,42.3,34.6,30.14,SE,124,0.0,0.0,74,0.00,,,0.00,Wunderground v.1.15,2013-02-23 16:20:00,
2013-02-23 08:26:00,43.2,35.1,30.14,SE,124,0.0,0.0,73,0.00,,,0.00,Wunderground v.1.15,2013-02-23 16:26:00,
2013-02-23 08:32:00,44.1,34.9,30.14,SE,124,0.0,0.0,70,0.00,,,0.00,Wunderground v.1.15,2013-02-23 16:32:00,
2013-02-23 08:38:00,45.3,35.7,30.14,SE,124,0.0,0.0,69,0.00,,,0.00,Wunderground v.1.15,2013-02-23 16:38:00,
2013-02-23 08:44:00,46.7,36.3,30.14,SE,124,0.0,0.0,67,0.00,,,0.00,Wunderground v.1.15,2013-02-23 16:44:00,
2013-02-23 08:50:00,48.5,36.9,30.14,SE,124,0.0,0.0,64,0.00,,,0.00,Wunderground v.1.15,2013-02-23 16:50:00,
2013-02-23 08:56:00,49.9,37.4,30.14,SE,124,0.0,0.0,62,0.00,,,0.00,Wunderground v.1.15,2013-02-23 16:56:00,
2013-02-23 09:02:00,51.3,38.3,30.13,SW,226,0.0,0.0,61,0.00,,,0.00,Wunderground v.1.15,2013-02-23 17:02:00,
2013-02-23 09:08:00,52.7,38.8,30.13,SW,226,0.0,0.0,59,0.00,,,0.00,Wunderground v.1.15,2013-02-23 17:08:00,
2013-02-23 09:14:00,54.2,38.4,30.13,WSW,250,0.0,0.0,55,0.00,,,0.00,Wunderground v.1.15,2013-02-23 17:14:00,
2013-02-23 09:20:00,55.4,39.0,30.13,NW,321,0.0,0.0,54,0.00,,,0.00,Wunderground v.1.15,2013-02-23 17:20:00,
2013-02-23 09:26:00,56.3,37.9,30.13,SSW,212,1.0,1.0,50,0.00,,,0.00,Wunderground v.1.15,2013-02-23 17:26:00,
2013-02-23 09:32:00,56.9,37.9,30.13,SSW,205,1.0,3.0,49,0.00,,,0.00,Wunderground v.1.15,2013-02-23 17:32:00,
2013-02-23 09:38:00,57.3,38.3,30.13,SSE,162,1.0,3.0,49,0.00,,,0.00,Wunderground v.1.15,2013-02-23 17:38:00,
2013-02-23 09:44:00,57.5,38.5,30.13,WNW,301,1.0,2.0,49,0.00,,,0.00,Wunderground v.1.15,2013-02-23 17:44:00,
2013-02-23 09:50:00,57.4,39.4,30.13,West,266,1.0,1.0,51,0.00,,,0.00,Wunderground v.1.15,2013-02-23 17:50:00,
2013-02-23 09:56:00,57.6,40.1,30.13,WSW,248,1.0,1.0,52,0.00,,,0.00,Wunderground v.1.15,2013-02-23 17:56:00,
2013-02-23 10:02:00,57.5,39.5,30.13,West,281,1.0,3.0,51,0.00,,,0.00,Wunderground v.1.15,2013-02-23 18:02:00,
2013-02-23 10:08:00,57.9,39.4,30.12,SW,235,1.0,3.0,50,0.00,,,0.00,Wunderground v.1.15,2013-02-23 18:08:00,
2013-02-23 10:14:00,58.4,40.3,30.12,SW,229,1.0,3.0,51,0.00,,,0.00,Wunderground v.1.15,2013-02-23 18:14:00,
2013-02-23 10:20:00,58.6,40.0,30.12,WNW,282,1.0,1.0,50,0.00,,,0.00,Wunderground v.1.15,2013-02-23 18:20:00,
2013-02-23 10:26:00,59.4,41.3,30.12,SW,222,2.0,2.0,51,0.00,,,0.00,Wunderground v.1.15,2013-02-23 18:26:00,
2013-02-23 10:32:00,60.2,42.0,30.11,West,280,1.0,5.0,51,0.00,,,0.00,Wunderground v.1.15,2013-02-23 18:32:00,
2013-02-23 10:38:00,60.8,42.0,30.11,West,259,1.0,5.0,50,0.00,,,0.00,Wunderground v.1.15,2013-02-23 18:38:00,
2013-02-23 10:44:00,61.1,42.3,30.11,WSW,253,2.0,5.0,50,0.00,,,0.00,Wunderground v.1.15,2013-02-23 18:44:00,
2013-02-23 10:50:00,61.2,40.2,30.11,WSW,250,2.0,5.0,46,0.00,,,0.00,Wunderground v.1.15,2013-02-23 18:50:00,
2013-02-23 10:56:00,61.4,43.1,30.10,West,276,3.0,5.0,51,0.00,,,0.00,Wunderground v.1.15,2013-02-23 18:56:00,
2013-02-23 11:02:00,61.7,42.9,30.10,WSW,246,2.0,3.0,50,0.00,,,0.00,Wunderground v.1.15,2013-02-23 19:02:00,
2013-02-23 11:08:00,61.0,42.2,30.09,WSW,245,4.0,8.0,50,0.00,,,0.00,Wunderground v.1.15,2013-02-23 19:08:00,
2013-02-23 11:14:00,61.2,42.9,30.09,WSW,249,3.0,4.0,51,0.00,,,0.00,Wunderground v.1.15,2013-02-23 19:14:00,
2013-02-23 11:20:00,61.0,44.2,30.09,WNW,288,3.0,3.0,54,0.00,,,0.00,Wunderground v.1.15,2013-02-23 19:20:00,
2013-02-23 11:26:00,61.1,44.8,30.09,West,270,3.0,3.0,55,0.00,,,0.00,Wunderground v.1.15,2013-02-23 19:26:00,
2013-02-23 11:32:00,61.4,45.1,30.09,WSW,255,3.0,5.0,55,0.00,,,0.00,Wunderground v.1.15,2013-02-23 19:32:00,
2013-02-23 11:38:00,61.2,44.9,30.08,WSW,248,4.0,7.0,55,0.00,,,0.00,Wunderground v.1.15,2013-02-23 19:38:00,
2013-02-23 11:44:00,61.0,45.7,30.08,SW,225,4.0,5.0,57,0.00,,,0.00,Wunderground v.1.15,2013-02-23 19:44:00,
2013-02-23 11:50:00,61.4,45.6,30.08,SW,218,2.0,4.0,56,0.00,,,0.00,Wunderground v.1.15,2013-02-23 19:50:00,
2013-02-23 11:56:00,61.5,45.7,30.08,WSW,245,2.0,4.0,56,0.00,,,0.00,Wunderground v.1.15,2013-02-23 19:56:00,
2013-02-23 12:02:00,61.2,45.4,30.08,WSW,249,4.0,5.0,56,0.00,,,0.00,Wunderground v.1.15,2013-02-23 20:02:00,
2013-02-23 12:08:00,61.3,44.0,30.07,WSW,250,3.0,8.0,53,0.00,,,0.00,Wunderground v.1.15,2013-02-23 20:08:00,
2013-02-23 12:14:00,61.2,44.4,30.07,SW,229,3.0,4.0,54,0.00,,,0.00,Wunderground v.1.15,2013-02-23 20:14:00,
2013-02-23 12:20:00,60.9,43.1,30.06,WSW,239,3.0,4.0,52,0.00,,,0.00,Wunderground v.1.15,2013-02-23 20:20:00,
2013-02-23 12:26:00,61.1,43.8,30.06,NNW,338,3.0,4.0,53,0.00,,,0.00,Wunderground v.1.15,2013-02-23 20:26:00,
2013-02-23 12:32:00,61.3,43.0,30.05,SW,231,2.0,9.0,51,0.00,,,0.00,Wunderground v.1.15,2013-02-23 20:32:00,
2013-02-23 12:38:00,61.3,42.5,30.04,WSW,245,3.0,9.0,50,0.00,,,0.00,Wunderground v.1.15,2013-02-23 20:38:00,
2013-02-23 12:44:00,62.1,42.7,30.04,SSE,168,3.0,9.0,49,0.00,,,0.00,Wunderground v.1.15,2013-02-23 20:44:00,
2013-02-23 12:50:00,62.2,44.9,30.03,SW,227,2.0,9.0,53,0.00,,,0.00,Wunderground v.1.15,2013-02-23 20:50:00,
2013-02-23 12:56:00,62.8,45.9,30.02,West,264,3.0,9.0,54,0.00,,,0.00,Wunderground v.1.15,2013-02-23 20:56:00,
2013-02-23 13:02:00,62.2,45.8,30.02,West,260,4.0,4.0,55,0.00,,,0.00,Wunderground v.1.15,2013-02-23 21:02:00,
2013-02-23 13:08:00,61.9,46.0,30.02,SW,224,4.0,6.0,56,0.00,,,0.00,Wunderground v.1.15,2013-02-23 21:08:00,
2013-02-23 13:14:00,61.7,45.4,30.02,WSW,252,5.0,5.0,55,0.00,,,0.00,Wunderground v.1.15,2013-02-23 21:14:00,
2013-02-23 13:20:00,61.6,46.7,30.02,SSW,195,4.0,4.0,58,0.00,,,0.00,Wunderground v.1.15,2013-02-23 21:20:00,
2013-02-23 13:26:00,61.4,46.5,30.01,SW,224,4.0,6.0,58,0.00,,,0.00,Wunderground v.1.15,2013-02-23 21:26:00,
2013-02-23 13:32:00,60.6,46.6,30.01,SW,226,5.0,9.0,60,0.00,,,0.00,Wunderground v.1.15,2013-02-23 21:32:00,
2013-02-23 13:38:00,60.9,48.2,30.01,SW,236,4.0,9.0,63,0.00,,,0.00,Wunderground v.1.15,2013-02-23 21:38:00,
2013-02-23 13:44:00,60.4,47.7,30.01,SW,236,5.0,9.0,63,0.00,,,0.00,Wunderground v.1.15,2013-02-23 21:44:00,
2013-02-23 13:50:00,60.1,48.3,30.00,SW,218,5.0,5.0,65,0.00,,,0.00,Wunderground v.1.15,2013-02-23 21:50:00,
2013-02-23 13:56:00,59.8,48.0,30.00,SW,219,4.0,11.0,65,0.00,,,0.00,Wunderground v.1.15,2013-02-23 21:56:00,
2013-02-23 14:02:00,58.8,48.3,30.00,NW,307,6.0,9.0,68,0.00,,,0.00,Wunderground v.1.15,2013-02-23 22:02:00,
2013-02-23 14:08:00,58.9,49.1,29.99,WSW,250,6.0,9.0,70,0.00,,,0.00,Wunderground v.1.15,2013-02-23 22:08:00,
2013-02-23 14:14:00,59.0,49.6,29.99,SW,231,6.0,7.0,71,0.00,,,0.00,Wunderground v.1.15,2013-02-23 22:14:00,
2013-02-23 14:20:00,57.9,48.9,29.99,SW,216,6.0,6.0,72,0.00,,,0.00,Wunderground v.1.15,2013-02-23 22:20:00,
2013-02-23 14:26:00,57.8,49.6,29.99,SW,236,5.0,6.0,74,0.00,,,0.00,Wunderground v.1.15,2013-02-23 22:26:00,
2013-02-23 14:32:00,57.1,48.9,29.99,WSW,247,5.0,11.0,74,0.00,,,0.00,Wunderground v.1.15,2013-02-23 22:32:00,
2013-02-23 14:38:00,56.3,49.2,29.99,SW,214,5.0,11.0,77,0.00,,,0.00,Wunderground v.1.15,2013-02-23 22:38:00,
2013-02-23 14:44:00,56.2,49.1,29.99,SW,224,5.0,11.0,77,0.00,,,0.00,Wunderground v.1.15,2013-02-23 22:44:00,
2013-02-23 14:50:00,56.4,49.6,29.98,SW,231,5.0,11.0,78,0.00,,,0.00,Wunderground v.1.15,2013-02-23 22:50:00,
2013-02-23 14:56:00,56.7,49.2,29.98,SW,233,5.0,11.0,76,0.00,,,0.00,Wunderground v.1.15,2013-02-23 22:56:00,
2013-02-23 15:02:00,56.9,49.4,29.98,West,264,5.0,5.0,76,0.00,,,0.00,Wunderground v.1.15,2013-02-23 23:02:00,
2013-02-23 15:08:00,57.0,49.5,29.98,SW,231,4.0,5.0,76,0.00,,,0.00,Wunderground v.1.15,2013-02-23 23:08:00,
2013-02-23 15:14:00,57.5,49.3,29.98,West,269,4.0,5.0,74,0.00,,,0.00,Wunderground v.1.15,2013-02-23 23:14:00,
2013-02-23 15:20:00,57.5,50.0,29.97,West,267,4.0,8.0,76,0.00,,,0.00,Wunderground v.1.15,2013-02-23 23:20:00,
2013-02-23 15:26:00,57.4,49.5,29.97,SW,233,4.0,8.0,75,0.00,,,0.00,Wunderground v.1.15,2013-02-23 23:26:00,
2013-02-23 15:32:00,57.4,49.9,29.97,WSW,253,5.0,6.0,76,0.00,,,0.00,Wunderground v.1.15,2013-02-23 23:32:00,
2013-02-23 15:38:00,56.7,49.2,29.97,WSW,249,5.0,11.0,76,0.00,,,0.00,Wunderground v.1.15,2013-02-23 23:38:00,
2013-02-23 15:44:00,56.3,48.8,29.97,WSW,256,5.0,11.0,76,0.00,,,0.00,Wunderground v.1.15,2013-02-23 23:44:00,
2013-02-23 15:50:00,55.8,49.0,29.97,WSW,240,5.0,11.0,78,0.00,,,0.00,Wunderground v.1.15,2013-02-23 23:50:00,
2013-02-23 15:56:00,56.2,49.8,29.96,WSW,247,4.0,11.0,79,0.00,,,0.00,Wunderground v.1.15,2013-02-23 23:56:00,
2013-02-23 16:02:00,56.7,49.6,29.96,West,266,4.0,4.0,77,0.00,,,0.00,Wunderground v.1.15,2013-02-24 00:02:00,
2013-02-23 16:08:00,56.8,49.3,29.96,SW,226,4.0,6.0,76,0.00,,,0.00,Wunderground v.1.15,2013-02-24 00:08:00,
2013-02-23 16:14:00,56.8,49.7,29.95,South,186,5.0,6.0,77,0.00,,,0.00,Wunderground v.1.15,2013-02-24 00:14:00,
2013-02-23 16:20:00,56.7,49.2,29.95,WSW,245,4.0,4.0,76,0.00,,,0.00,Wunderground v.1.15,2013-02-24 00:20:00,
2013-02-23 16:26:00,56.7,49.6,29.95,WSW,250,4.0,5.0,77,0.00,,,0.00,Wunderground v.1.15,2013-02-24 00:26:00,
2013-02-23 16:32:00,56.7,49.2,29.95,WSW,240,4.0,6.0,76,0.00,,,0.00,Wunderground v.1.15,2013-02-24 00:32:00,
2013-02-23 16:38:00,56.4,49.3,29.95,West,264,4.0,11.0,77,0.00,,,0.00,Wunderground v.1.15,2013-02-24 00:38:00,
2013-02-23 16:44:00,56.6,49.5,29.95,SW,214,4.0,11.0,77,0.00,,,0.00,Wunderground v.1.15,2013-02-24 00:44:00,
2013-02-23 16:50:00,56.5,49.4,29.95,WSW,253,3.0,11.0,77,0.00,,,0.00,Wunderground v.1.15,2013-02-24 00:50:00,
2013-02-23 16:56:00,56.2,49.1,29.94,SW,225,3.0,11.0,77,0.00,,,0.00,Wunderground v.1.15,2013-02-24 00:56:00,
2013-02-23 17:02:00,56.0,48.9,29.94,WSW,243,3.0,4.0,77,0.00,,,0.00,Wunderground v.1.15,2013-02-24 01:02:00,
2013-02-23 17:08:00,55.8,48.7,29.94,SW,229,3.0,4.0,77,0.00,,,0.00,Wunderground v.1.15,2013-02-24 01:08:00,
2013-02-23 17:14:00,55.9,48.8,29.95,SW,236,2.0,3.0,77,0.00,,,0.00,Wunderground v.1.15,2013-02-24 01:14:00,
2013-02-23 17:20:00,55.6,48.5,29.95,WSW,245,2.0,2.0,77,0.00,,,0.00,Wunderground v.1.15,2013-02-24 01:20:00,
2013-02-23 17:26:00,55.2,48.5,29.95,SW,236,2.0,2.0,78,0.00,,,0.00,Wunderground v.1.15,2013-02-24 01:26:00,
2013-02-23 17:32:00,54.8,48.1,29.95,WSW,243,1.0,10.0,78,0.00,,,0.00,Wunderground v.1.15,2013-02-24 01:32:00,
2013-02-23 17:38:00,54.2,47.8,29.95,WSW,248,1.0,10.0,79,0.00,,,0.00,Wunderground v.1.15,2013-02-24 01:38:00,
2013-02-23 17:44:00,53.6,47.6,29.94,SW,228,0.0,10.0,80,0.00,,,0.00,Wunderground v.1.15,2013-02-24 01:44:00,
2013-02-23 17:50:00,52.9,46.9,29.95,SW,227,0.0,10.0,80,0.00,,,0.00,Wunderground v.1.15,2013-02-24 01:50:00,
2013-02-23 17:56:00,52.3,47.0,29.95,SSW,196,0.0,10.0,82,0.00,,,0.00,Wunderground v.1.15,2013-02-24 01:56:00,
2013-02-23 18:02:00,51.5,46.2,29.96,ESE,121,0.0,0.0,82,0.00,,,0.00,Wunderground v.1.15,2013-02-24 02:02:00,
2013-02-23 18:08:00,51.1,46.4,29.96,SE,124,0.0,0.0,84,0.00,,,0.00,Wunderground v.1.15,2013-02-24 02:08:00,
2013-02-23 18:14:00,50.6,45.9,29.96,SE,124,0.0,0.0,84,0.00,,,0.00,Wunderground v.1.15,2013-02-24 02:14:00,
2013-02-23 18:20:00,50.1,45.8,29.96,SE,127,0.0,0.0,85,0.00,,,0.00,Wunderground v.1.15,2013-02-24 02:20:00,
2013-02-23 18:26:00,49.8,45.5,29.96,SE,127,0.0,0.0,85,0.00,,,0.00,Wunderground v.1.15,2013-02-24 02:26:00,
2013-02-23 18:32:00,49.2,45.2,29.97,SE,127,0.0,6.0,86,0.00,,,0.00,Wunderground v.1.15,2013-02-24 02:32:00,
2013-02-23 18:38:00,48.9,45.2,29.97,SE,127,0.0,6.0,87,0.00,,,0.00,Wunderground v.1.15,2013-02-24 02:38:00,
2013-02-23 18:44:00,48.7,45.3,29.97,WSW,244,0.0,6.0,88,0.00,,,0.00,Wunderground v.1.15,2013-02-24 02:44:00,
2013-02-23 18:50:00,48.6,44.9,29.97,WSW,238,1.0,1.0,87,0.00,,,0.00,Wunderground v.1.15,2013-02-24 02:50:00,
2013-02-23 18:56:00,48.4,45.0,29.97,WSW,254,0.0,6.0,88,0.00,,,0.00,Wunderground v.1.15,2013-02-24 02:56:00,
2013-02-23 19:02:00,48.0,44.3,29.97,WSW,253,0.0,0.0,87,0.00,,,0.00,Wunderground v.1.15,2013-02-24 03:02:00,
2013-02-23 19:08:00,47.6,44.2,29.97,WSW,253,0.0,0.0,88,0.00,,,0.00,Wunderground v.1.15,2013-02-24 03:08:00,
2013-02-23 19:14:00,47.6,44.5,29.97,WSW,253,0.0,0.0,89,0.00,,,0.00,Wunderground v.1.15,2013-02-24 03:14:00,
2013-02-23 19:20:00,47.7,44.9,29.97,WSW,253,0.0,0.0,90,0.00,,,0.00,Wunderground v.1.15,2013-02-24 03:20:00,
2013-02-23 19:26:00,47.7,44.9,29.97,WSW,253,0.0,0.0,90,0.00,,,0.00,Wunderground v.1.15,2013-02-24 03:26:00,
2013-02-23 19:32:00,47.6,44.8,29.98,WSW,253,0.0,0.0,90,0.00,,,0.00,Wunderground v.1.15,2013-02-24 03:32:00,
2013-02-23 19:38:00,47.5,44.7,29.97,WSW,253,0.0,0.0,90,0.00,,,0.00,Wunderground v.1.15,2013-02-24 03:38:00,
2013-02-23 19:44:00,47.2,44.4,29.97,WSW,253,0.0,0.0,90,0.00,,,0.00,Wunderground v.1.15,2013-02-24 03:44:00,
2013-02-23 19:50:00,47.0,44.5,29.98,WSW,254,0.0,0.0,91,0.00,,,0.00,Wunderground v.1.15,2013-02-24 03:50:00,
2013-02-23 19:56:00,46.8,44.3,29.98,WSW,253,0.0,0.0,91,0.00,,,0.00,Wunderground v.1.15,2013-02-24 03:56:00,
2013-02-23 20:02:00,46.7,43.9,29.98,NNE,24,0.0,0.0,90,0.00,,,0.00,Wunderground v.1.15,2013-02-24 04:02:00,
2013-02-23 20:08:00,46.9,41.7,29.98,ESE,104,1.0,1.0,82,0.00,,,0.00,Wunderground v.1.15,2013-02-24 04:08:00,
2013-02-23 20:14:00,48.9,37.6,29.99,ENE,77,1.0,3.0,65,0.00,,,0.00,Wunderground v.1.15,2013-02-24 04:14:00,
2013-02-23 20:20:00,50.3,35.2,29.99,ESE,103,1.0,8.0,56,0.00,,,0.00,Wunderground v.1.15,2013-02-24 04:20:00,
2013-02-23 20:26:00,51.0,34.0,30.00,ENE,76,1.0,8.0,52,0.00,,,0.00,Wunderground v.1.15,2013-02-24 04:26:00,
2013-02-23 20:32:00,51.3,33.8,30.01,NE,55,1.0,1.0,51,0.00,,,0.00,Wunderground v.1.15,2013-02-24 04:32:00,
2013-02-23 20:38:00,51.3,33.3,30.00,SE,129,1.0,2.0,50,0.00,,,0.00,Wunderground v.1.15,2013-02-24 04:38:00,
2013-02-23 20:44:00,51.7,33.1,30.01,ESE,117,1.0,3.0,49,0.00,,,0.00,Wunderground v.1.15,2013-02-24 04:44:00,
2013-02-23 20:50:00,51.7,33.1,30.01,ENE,72,0.0,3.0,49,0.00,,,0.00,Wunderground v.1.15,2013-02-24 04:50:00,
2013-02-23 20:56:00,51.6,33.0,30.01,East,89,1.0,3.0,49,0.00,,,0.00,Wunderground v.1.15,2013-02-24 04:56:00,
2013-02-23 21:00:00,51.8,32.7,30.01,ESE,120,1.0,1.0,48,0.00,,,0.00,Wunderground v.1.15,2013-02-24 05:00:00,
2013-02-23 21:02:00,51.7,32.6,30.01,SE,124,1.0,1.0,48,0.00,,,0.00,Wunderground v.1.15,2013-02-24 05:02:00,
2013-02-23 21:04:00,51.6,32.5,30.01,East,92,1.0,2.0,48,0.00,,,0.00,Wunderground v.1.15,2013-02-24 05:04:00,
2013-02-23 21:10:00,51.5,32.4,30.02,SE,136,1.0,1.0,48,0.00,,,0.00,Wunderground v.1.15,2013-02-24 05:10:00,
2013-02-23 21:16:00,51.3,32.8,30.02,NW,326,1.0,1.0,49,0.00,,,0.00,Wunderground v.1.15,2013-02-24 05:16:00,
2013-02-23 21:22:00,51.1,32.6,30.01,North,6,0.0,1.0,49,0.00,,,0.00,Wunderground v.1.15,2013-02-24 05:22:00,
2013-02-23 21:28:00,50.7,32.7,30.01,ESE,115,0.0,3.0,50,0.00,,,0.00,Wunderground v.1.15,2013-02-24 05:28:00,
2013-02-23 21:34:00,51.0,33.0,30.02,SE,134,1.0,8.0,50,0.00,,,0.00,Wunderground v.1.15,2013-02-24 05:34:00,
2013-02-23 21:40:00,51.2,32.7,30.03,NNW,329,1.0,8.0,49,0.00,,,0.00,Wunderground v.1.15,2013-02-24 05:40:00,
2013-02-23 21:46:00,51.3,32.8,30.03,NNE,18,1.0,8.0,49,0.00,,,0.00,Wunderground v.1.15,2013-02-24 05:46:00,
2013-02-23 21:52:00,50.9,32.4,30.03,SE,135,0.0,8.0,49,0.00,,,0.00,Wunderground v.1.15,2013-02-24 05:52:00,
2013-02-23 21:58:00,50.9,31.9,30.03,NW,311,1.0,8.0,48,0.00,,,0.00,Wunderground v.1.15,2013-02-24 05:58:00,
2013-02-23 22:04:00,51.0,31.5,30.03,East,90,1.0,1.0,47,0.00,,,0.00,Wunderground v.1.15,2013-02-24 06:04:00,
2013-02-23 22:10:00,50.7,30.7,30.03,NW,305,0.0,0.0,46,0.00,,,0.00,Wunderground v.1.15,2013-02-24 06:10:00,
2013-02-23 22:16:00,50.3,29.2,30.04,East,82,0.0,5.0,44,0.00,,,0.00,Wunderground v.1.15,2013-02-24 06:16:00,
2013-02-23 22:22:00,50.5,28.2,30.04,SE,138,1.0,1.0,42,0.00,,,0.00,Wunderground v.1.15,2013-02-24 06:22:00,
2013-02-23 22:28:00,50.4,27.6,30.04,SE,124,1.0,2.0,41,0.00,,,0.00,Wunderground v.1.15,2013-02-24 06:28:00,
2013-02-23 22:34:00,50.4,27.6,30.04,ESE,105,1.0,6.0,41,0.00,,,0.00,Wunderground v.1.15,2013-02-24 06:34:00,
2013-02-23 22:40:00,49.9,27.1,30.04,NE,36,0.0,6.0,41,0.00,,,0.00,Wunderground v.1.15,2013-02-24 06:40:00,
2013-02-23 22:46:00,48.9,27.9,30.03,East,98,0.0,6.0,44,0.00,,,0.00,Wunderground v.1.15,2013-02-24 06:46:00,
2013-02-23 22:52:00,48.4,28.5,30.04,WNW,296,0.0,6.0,46,0.00,,,0.00,Wunderground v.1.15,2013-02-24 06:52:00,
2013-02-23 22:58:00,49.0,30.1,30.04,ESE,117,1.0,6.0,48,0.00,,,0.00,Wunderground v.1.15,2013-02-24 06:58:00,
2013-02-23 23:04:00,49.7,30.8,30.05,NW,307,1.0,2.0,48,0.00,,,0.00,Wunderground v.1.15,2013-02-24 07:04:00,
2013-02-23 23:10:00,50.5,31.0,30.05,NW,316,2.0,2.0,47,0.00,,,0.00,Wunderground v.1.15,2013-02-24 07:10:00,
2013-02-23 23:16:00,51.0,30.9,30.05,NNE,29,2.0,4.0,46,0.00,,,0.00,Wunderground v.1.15,2013-02-24 07:16:00,
2013-02-23 23:22:00,51.2,31.1,30.04,NNE,26,2.0,2.0,46,0.00,,,0.00,Wunderground v.1.15,2013-02-24 07:22:00,
2013-02-23 23:28:00,50.9,31.4,30.04,NE,39,2.0,2.0,47,0.00,,,0.00,Wunderground v.1.15,2013-02-24 07:28:00,
2013-02-23 23:34:00,50.9,31.4,30.05,NNE,15,1.0,5.0,47,0.00,,,0.00,Wunderground v.1.15,2013-02-24 07:34:00,
2013-02-23 23:40:00,51.2,31.1,30.04,NNW,343,3.0,3.0,46,0.00,,,0.00,Wunderground v.1.15,2013-02-24 07:40:00,
2013-02-23 23:46:00,51.4,31.3,30.04,East,84,3.0,8.0,46,0.00,,,0.00,Wunderground v.1.15,2013-02-24 07:46:00,
2013-02-23 23:52:00,51.5,30.8,30.05,North,8,2.0,3.0,45,0.00,,,0.00,Wunderground v.1.15,2013-02-24 07:52:00,
2013-02-23 23:58:00,51.6,30.4,30.05,NNE,22,3.0,5.0,44,0.00,,,0.00,Wunderground v.1.15,2013-02-24 07:58:00,